sensor_id;sensor_type;location;lat;lon;timestamp;P1;durP1;ratioP1;P2;durP2;ratioP2
59960;SDS011;55902;-37.980;-63.602;2022-08-02T00:00:16;5.03;;;3.70;;
59960;SDS011;55902;-37.980;-63.602;2022-08-02T00:02:43;5.78;;;4.63;;
59960;SDS011;55902;-37.980;-63.602;2022-08-02T00:05:11;5.57;;;4.90;;
59960;SDS011;55902;-37.980;-63.602;2022-08-02T00:07:39;6.70;;;5.47;;
59960;SDS011;55902;-37.980;-63.602;2022-08-02T00:10:07;6.10;;;5.22;;
59960;SDS011;55902;-37.980;-63.602;2022-08-02T00:12:36;6.03;;;5.28;;
59960;SDS011;55902;-37.980;-63.602;2022-08-02T00:15:04;4.85;;;4.30;;
59960;SDS011;55902;-37.980;-63.602;2022-08-02T00:17:35;5.60;;;4.50;;
59960;SDS011;55902;-37.980;-63.602;2022-08-02T00:23:24;6.32;;;5.47;;
59960;SDS011;55902;-37.980;-63.602;2022-08-02T00:25:50;5.63;;;4.57;;
59960;SDS011;55902;-37.980;-63.602;2022-08-02T00:28:17;5.18;;;4.35;;
59960;SDS011;55902;-37.980;-63.602;2022-08-02T00:30:45;6.25;;;4.40;;
59960;SDS011;55902;-37.980;-63.602;2022-08-02T00:33:13;6.05;;;4.53;;
59960;SDS011;55902;-37.980;-63.602;2022-08-02T00:35:40;6.40;;;4.03;;
59960;SDS011;55902;-37.980;-63.602;2022-08-02T00:38:08;5.45;;;4.18;;
59960;SDS011;55902;-37.980;-63.602;2022-08-02T00:40:35;5.07;;;4.10;;
59960;SDS011;55902;-37.980;-63.602;2022-08-02T00:43:06;6.13;;;4.50;;
59960;SDS011;55902;-37.980;-63.602;2022-08-02T00:45:39;6.95;;;4.70;;
59960;SDS011;55902;-37.980;-63.602;2022-08-02T00:48:07;4.95;;;4.35;;
59960;SDS011;55902;-37.980;-63.602;2022-08-02T00:50:36;5.95;;;4.43;;
59960;SDS011;55902;-37.980;-63.602;2022-08-02T00:53:04;4.53;;;3.90;;
59960;SDS011;55902;-37.980;-63.602;2022-08-02T00:55:33;5.32;;;4.18;;
59960;SDS011;55902;-37.980;-63.602;2022-08-02T00:58:01;5.38;;;4.07;;
59960;SDS011;55902;-37.980;-63.602;2022-08-02T01:00:29;6.10;;;4.22;;
59960;SDS011;55902;-37.980;-63.602;2022-08-02T01:02:56;5.70;;;4.93;;
59960;SDS011;55902;-37.980;-63.602;2022-08-02T01:05:22;6.63;;;5.40;;
59960;SDS011;55902;-37.980;-63.602;2022-08-02T01:07:49;5.40;;;4.68;;
59960;SDS011;55902;-37.980;-63.602;2022-08-02T01:10:16;5.70;;;4.60;;
59960;SDS011;55902;-37.980;-63.602;2022-08-02T01:12:43;6.85;;;5.13;;
59960;SDS011;55902;-37.980;-63.602;2022-08-02T01:15:12;5.95;;;4.85;;
59960;SDS011;55902;-37.980;-63.602;2022-08-02T01:17:51;6.70;;;4.78;;
59960;SDS011;55902;-37.980;-63.602;2022-08-02T01:35:12;7.20;;;5.05;;
59960;SDS011;55902;-37.980;-63.602;2022-08-02T01:40:43;6.68;;;5.18;;
59960;SDS011;55902;-37.980;-63.602;2022-08-02T01:43:13;6.68;;;5.40;;
59960;SDS011;55902;-37.980;-63.602;2022-08-02T01:45:42;5.78;;;4.90;;
59960;SDS011;55902;-37.980;-63.602;2022-08-02T01:48:10;6.25;;;4.65;;
59960;SDS011;55902;-37.980;-63.602;2022-08-02T01:50:39;7.63;;;5.90;;
59960;SDS011;55902;-37.980;-63.602;2022-08-02T01:53:08;8.52;;;5.40;;
59960;SDS011;55902;-37.980;-63.602;2022-08-02T01:55:43;8.82;;;6.78;;
59960;SDS011;55902;-37.980;-63.602;2022-08-02T01:58:13;8.50;;;6.32;;
59960;SDS011;55902;-37.980;-63.602;2022-08-02T02:00:43;8.15;;;6.70;;
59960;SDS011;55902;-37.980;-63.602;2022-08-02T02:03:12;9.63;;;7.70;;
59960;SDS011;55902;-37.980;-63.602;2022-08-02T02:05:44;10.52;;;7.43;;
59960;SDS011;55902;-37.980;-63.602;2022-08-02T02:08:14;12.77;;;9.50;;
59960;SDS011;55902;-37.980;-63.602;2022-08-02T02:10:48;13.75;;;11.00;;
59960;SDS011;55902;-37.980;-63.602;2022-08-02T02:13:17;12.75;;;10.05;;
59960;SDS011;55902;-37.980;-63.602;2022-08-02T02:15:47;14.30;;;9.93;;
59960;SDS011;55902;-37.980;-63.602;2022-08-02T02:18:25;10.65;;;8.15;;
59960;SDS011;55902;-37.980;-63.602;2022-08-02T02:20:57;11.98;;;8.52;;
59960;SDS011;55902;-37.980;-63.602;2022-08-02T02:23:24;9.23;;;7.20;;
59960;SDS011;55902;-37.980;-63.602;2022-08-02T02:25:51;8.43;;;6.97;;
59960;SDS011;55902;-37.980;-63.602;2022-08-02T02:28:22;9.15;;;7.03;;
59960;SDS011;55902;-37.980;-63.602;2022-08-02T02:31:09;7.70;;;6.30;;
59960;SDS011;55902;-37.980;-63.602;2022-08-02T02:33:50;7.60;;;5.65;;
59960;SDS011;55902;-37.980;-63.602;2022-08-02T02:36:23;9.07;;;7.00;;
59960;SDS011;55902;-37.980;-63.602;2022-08-02T02:38:50;7.22;;;5.30;;
59960;SDS011;55902;-37.980;-63.602;2022-08-02T02:41:19;6.32;;;5.38;;
59960;SDS011;55902;-37.980;-63.602;2022-08-02T02:43:48;6.80;;;5.38;;
59960;SDS011;55902;-37.980;-63.602;2022-08-02T02:46:15;8.23;;;5.80;;
59960;SDS011;55902;-37.980;-63.602;2022-08-02T02:48:46;6.72;;;5.50;;
59960;SDS011;55902;-37.980;-63.602;2022-08-02T02:51:15;6.88;;;6.00;;
59960;SDS011;55902;-37.980;-63.602;2022-08-02T02:53:43;6.35;;;5.45;;
59960;SDS011;55902;-37.980;-63.602;2022-08-02T02:56:11;7.90;;;6.22;;
59960;SDS011;55902;-37.980;-63.602;2022-08-02T02:58:40;6.65;;;5.53;;
59960;SDS011;55902;-37.980;-63.602;2022-08-02T03:01:11;7.07;;;6.13;;
59960;SDS011;55902;-37.980;-63.602;2022-08-02T03:03:56;7.70;;;6.13;;
59960;SDS011;55902;-37.980;-63.602;2022-08-02T03:06:31;7.03;;;5.90;;
59960;SDS011;55902;-37.980;-63.602;2022-08-02T03:09:00;7.40;;;5.85;;
59960;SDS011;55902;-37.980;-63.602;2022-08-02T03:11:28;6.75;;;5.20;;
59960;SDS011;55902;-37.980;-63.602;2022-08-02T03:13:59;7.63;;;6.00;;
59960;SDS011;55902;-37.980;-63.602;2022-08-02T03:16:28;6.80;;;6.07;;
59960;SDS011;55902;-37.980;-63.602;2022-08-02T03:18:56;7.50;;;5.78;;
59960;SDS011;55902;-37.980;-63.602;2022-08-02T03:21:26;7.65;;;6.00;;
59960;SDS011;55902;-37.980;-63.602;2022-08-02T03:23:53;6.72;;;5.10;;
59960;SDS011;55902;-37.980;-63.602;2022-08-02T03:26:20;6.55;;;5.20;;
59960;SDS011;55902;-37.980;-63.602;2022-08-02T03:28:47;5.40;;;4.30;;
59960;SDS011;55902;-37.980;-63.602;2022-08-02T03:31:17;4.70;;;4.20;;
59960;SDS011;55902;-37.980;-63.602;2022-08-02T03:33:44;5.32;;;4.43;;
59960;SDS011;55902;-37.980;-63.602;2022-08-02T03:36:12;6.60;;;4.63;;
59960;SDS011;55902;-37.980;-63.602;2022-08-02T03:38:43;5.90;;;4.88;;
59960;SDS011;55902;-37.980;-63.602;2022-08-02T03:41:12;5.88;;;5.00;;
59960;SDS011;55902;-37.980;-63.602;2022-08-02T03:43:45;6.22;;;5.10;;
59960;SDS011;55902;-37.980;-63.602;2022-08-02T03:46:17;6.32;;;5.38;;
59960;SDS011;55902;-37.980;-63.602;2022-08-02T03:48:47;6.10;;;5.32;;
59960;SDS011;55902;-37.980;-63.602;2022-08-02T03:51:15;6.50;;;5.30;;
59960;SDS011;55902;-37.980;-63.602;2022-08-02T03:53:43;6.45;;;5.28;;
59960;SDS011;55902;-37.980;-63.602;2022-08-02T03:56:11;6.47;;;5.18;;
59960;SDS011;55902;-37.980;-63.602;2022-08-02T03:58:39;7.35;;;6.00;;
59960;SDS011;55902;-37.980;-63.602;2022-08-02T04:01:06;8.20;;;6.40;;
59960;SDS011;55902;-37.980;-63.602;2022-08-02T04:03:33;9.55;;;7.72;;
59960;SDS011;55902;-37.980;-63.602;2022-08-02T04:05:59;10.68;;;8.05;;
59960;SDS011;55902;-37.980;-63.602;2022-08-02T04:08:26;10.55;;;7.90;;
59960;SDS011;55902;-37.980;-63.602;2022-08-02T04:10:53;11.85;;;9.20;;
59960;SDS011;55902;-37.980;-63.602;2022-08-02T04:13:38;15.77;;;11.77;;
59960;SDS011;55902;-37.980;-63.602;2022-08-02T04:16:20;20.90;;;13.82;;
59960;SDS011;55902;-37.980;-63.602;2022-08-02T04:18:55;16.15;;;11.07;;
59960;SDS011;55902;-37.980;-63.602;2022-08-02T04:21:26;17.25;;;11.82;;
59960;SDS011;55902;-37.980;-63.602;2022-08-02T04:23:57;20.55;;;12.13;;
59960;SDS011;55902;-37.980;-63.602;2022-08-02T04:26:25;18.95;;;11.73;;
59960;SDS011;55902;-37.980;-63.602;2022-08-02T04:28:52;18.15;;;10.73;;
59960;SDS011;55902;-37.980;-63.602;2022-08-02T04:31:20;16.63;;;11.57;;
59960;SDS011;55902;-37.980;-63.602;2022-08-02T04:33:48;15.90;;;10.90;;
59960;SDS011;55902;-37.980;-63.602;2022-08-02T04:36:15;18.63;;;13.35;;
59960;SDS011;55902;-37.980;-63.602;2022-08-02T04:38:42;18.15;;;11.60;;
59960;SDS011;55902;-37.980;-63.602;2022-08-02T04:41:09;21.10;;;14.20;;
59960;SDS011;55902;-37.980;-63.602;2022-08-02T04:43:36;18.38;;;12.70;;
59960;SDS011;55902;-37.980;-63.602;2022-08-02T04:46:03;15.05;;;9.82;;
59960;SDS011;55902;-37.980;-63.602;2022-08-02T04:48:30;10.00;;;7.57;;
59960;SDS011;55902;-37.980;-63.602;2022-08-02T04:50:57;9.82;;;6.50;;
59960;SDS011;55902;-37.980;-63.602;2022-08-02T04:53:24;8.60;;;5.97;;
59960;SDS011;55902;-37.980;-63.602;2022-08-02T04:55:51;8.88;;;6.20;;
59960;SDS011;55902;-37.980;-63.602;2022-08-02T04:58:18;9.73;;;6.20;;
59960;SDS011;55902;-37.980;-63.602;2022-08-02T05:00:44;9.38;;;5.97;;
59960;SDS011;55902;-37.980;-63.602;2022-08-02T05:03:11;9.27;;;7.43;;
59960;SDS011;55902;-37.980;-63.602;2022-08-02T05:05:39;8.65;;;5.97;;
59960;SDS011;55902;-37.980;-63.602;2022-08-02T05:08:05;8.98;;;6.72;;
59960;SDS011;55902;-37.980;-63.602;2022-08-02T05:10:32;8.40;;;5.85;;
59960;SDS011;55902;-37.980;-63.602;2022-08-02T05:12:59;7.40;;;5.30;;
59960;SDS011;55902;-37.980;-63.602;2022-08-02T05:15:28;9.63;;;7.03;;
59960;SDS011;55902;-37.980;-63.602;2022-08-02T05:17:57;9.77;;;6.97;;
59960;SDS011;55902;-37.980;-63.602;2022-08-02T05:20:24;9.18;;;6.60;;
59960;SDS011;55902;-37.980;-63.602;2022-08-02T05:22:51;5.95;;;4.95;;
59960;SDS011;55902;-37.980;-63.602;2022-08-02T05:25:18;6.18;;;4.80;;
59960;SDS011;55902;-37.980;-63.602;2022-08-02T05:27:45;7.53;;;5.72;;
59960;SDS011;55902;-37.980;-63.602;2022-08-02T05:30:12;7.18;;;5.70;;
59960;SDS011;55902;-37.980;-63.602;2022-08-02T05:32:42;8.23;;;6.47;;
59960;SDS011;55902;-37.980;-63.602;2022-08-02T05:35:16;9.20;;;7.18;;
59960;SDS011;55902;-37.980;-63.602;2022-08-02T05:37:44;9.23;;;7.28;;
59960;SDS011;55902;-37.980;-63.602;2022-08-02T05:40:12;10.40;;;7.95;;
59960;SDS011;55902;-37.980;-63.602;2022-08-02T05:42:40;8.55;;;6.78;;
59960;SDS011;55902;-37.980;-63.602;2022-08-02T05:45:07;10.43;;;7.15;;
59960;SDS011;55902;-37.980;-63.602;2022-08-02T05:47:35;7.63;;;6.30;;
59960;SDS011;55902;-37.980;-63.602;2022-08-02T05:50:03;7.30;;;6.00;;
59960;SDS011;55902;-37.980;-63.602;2022-08-02T05:55:31;6.35;;;5.57;;
59960;SDS011;55902;-37.980;-63.602;2022-08-02T05:58:05;7.10;;;5.35;;
59960;SDS011;55902;-37.980;-63.602;2022-08-02T06:00:40;5.38;;;4.80;;
59960;SDS011;55902;-37.980;-63.602;2022-08-02T06:08:30;5.93;;;5.10;;
59960;SDS011;55902;-37.980;-63.602;2022-08-02T06:11:00;5.45;;;4.80;;
59960;SDS011;55902;-37.980;-63.602;2022-08-02T06:13:32;6.28;;;5.30;;
59960;SDS011;55902;-37.980;-63.602;2022-08-02T06:16:00;8.13;;;6.85;;
59960;SDS011;55902;-37.980;-63.602;2022-08-02T06:18:29;6.25;;;5.65;;
59960;SDS011;55902;-37.980;-63.602;2022-08-02T06:21:00;7.85;;;5.35;;
59960;SDS011;55902;-37.980;-63.602;2022-08-02T06:23:28;6.68;;;5.38;;
59960;SDS011;55902;-37.980;-63.602;2022-08-02T06:25:56;7.60;;;5.60;;
59960;SDS011;55902;-37.980;-63.602;2022-08-02T06:28:25;7.07;;;5.78;;
59960;SDS011;55902;-37.980;-63.602;2022-08-02T06:30:52;7.60;;;5.93;;
59960;SDS011;55902;-37.980;-63.602;2022-08-02T06:33:20;7.80;;;6.65;;
59960;SDS011;55902;-37.980;-63.602;2022-08-02T06:41:35;9.18;;;6.85;;
59960;SDS011;55902;-37.980;-63.602;2022-08-02T06:44:11;9.25;;;7.78;;
59960;SDS011;55902;-37.980;-63.602;2022-08-02T06:46:38;9.82;;;7.53;;
59960;SDS011;55902;-37.980;-63.602;2022-08-02T06:49:06;10.05;;;8.07;;
59960;SDS011;55902;-37.980;-63.602;2022-08-02T06:51:33;8.98;;;7.15;;
59960;SDS011;55902;-37.980;-63.602;2022-08-02T06:54:00;10.25;;;8.18;;
59960;SDS011;55902;-37.980;-63.602;2022-08-02T06:56:27;8.23;;;7.18;;
59960;SDS011;55902;-37.980;-63.602;2022-08-02T06:58:54;12.13;;;10.35;;
59960;SDS011;55902;-37.980;-63.602;2022-08-02T07:01:21;9.18;;;7.65;;
59960;SDS011;55902;-37.980;-63.602;2022-08-02T07:03:48;8.88;;;7.03;;
59960;SDS011;55902;-37.980;-63.602;2022-08-02T07:06:14;9.35;;;7.95;;
59960;SDS011;55902;-37.980;-63.602;2022-08-02T07:08:41;8.60;;;6.78;;
59960;SDS011;55902;-37.980;-63.602;2022-08-02T07:11:08;10.38;;;7.63;;
59960;SDS011;55902;-37.980;-63.602;2022-08-02T07:13:36;11.45;;;9.38;;
59960;SDS011;55902;-37.980;-63.602;2022-08-02T07:16:03;9.80;;;8.15;;
59960;SDS011;55902;-37.980;-63.602;2022-08-02T07:18:30;11.60;;;9.02;;
59960;SDS011;55902;-37.980;-63.602;2022-08-02T07:20:57;11.95;;;10.35;;
59960;SDS011;55902;-37.980;-63.602;2022-08-02T07:23:24;11.73;;;9.55;;
59960;SDS011;55902;-37.980;-63.602;2022-08-02T07:25:50;9.38;;;7.45;;
59960;SDS011;55902;-37.980;-63.602;2022-08-02T07:28:17;10.23;;;8.80;;
59960;SDS011;55902;-37.980;-63.602;2022-08-02T07:30:44;9.43;;;8.23;;
59960;SDS011;55902;-37.980;-63.602;2022-08-02T07:33:11;11.95;;;9.77;;
59960;SDS011;55902;-37.980;-63.602;2022-08-02T07:35:38;10.38;;;8.80;;
59960;SDS011;55902;-37.980;-63.602;2022-08-02T07:38:06;10.27;;;7.97;;
59960;SDS011;55902;-37.980;-63.602;2022-08-02T07:40:33;12.15;;;9.75;;
59960;SDS011;55902;-37.980;-63.602;2022-08-02T07:42:59;16.25;;;11.10;;
59960;SDS011;55902;-37.980;-63.602;2022-08-02T07:55:21;20.00;;;13.65;;
59960;SDS011;55902;-37.980;-63.602;2022-08-02T07:57:49;20.15;;;12.13;;
59960;SDS011;55902;-37.980;-63.602;2022-08-02T08:00:16;23.20;;;13.05;;
59960;SDS011;55902;-37.980;-63.602;2022-08-02T08:02:45;19.17;;;11.57;;
59960;SDS011;55902;-37.980;-63.602;2022-08-02T08:05:12;24.58;;;13.43;;
59960;SDS011;55902;-37.980;-63.602;2022-08-02T08:07:59;22.55;;;12.68;;
59960;SDS011;55902;-37.980;-63.602;2022-08-02T08:10:25;22.35;;;13.70;;
59960;SDS011;55902;-37.980;-63.602;2022-08-02T08:12:52;20.10;;;11.52;;
59960;SDS011;55902;-37.980;-63.602;2022-08-02T08:15:22;19.00;;;10.98;;
59960;SDS011;55902;-37.980;-63.602;2022-08-02T08:17:49;17.02;;;10.13;;
59960;SDS011;55902;-37.980;-63.602;2022-08-02T08:20:16;17.25;;;11.30;;
59960;SDS011;55902;-37.980;-63.602;2022-08-02T08:22:43;17.15;;;11.02;;
59960;SDS011;55902;-37.980;-63.602;2022-08-02T08:25:09;20.00;;;9.82;;
59960;SDS011;55902;-37.980;-63.602;2022-08-02T08:27:36;17.02;;;9.68;;
59960;SDS011;55902;-37.980;-63.602;2022-08-02T08:30:03;16.77;;;11.38;;
59960;SDS011;55902;-37.980;-63.602;2022-08-02T08:32:30;10.98;;;8.00;;
59960;SDS011;55902;-37.980;-63.602;2022-08-02T08:34:57;8.35;;;6.53;;
59960;SDS011;55902;-37.980;-63.602;2022-08-02T08:37:24;8.27;;;6.72;;
59960;SDS011;55902;-37.980;-63.602;2022-08-02T08:39:51;8.52;;;5.57;;
59960;SDS011;55902;-37.980;-63.602;2022-08-02T08:42:18;7.10;;;5.60;;
59960;SDS011;55902;-37.980;-63.602;2022-08-02T08:44:45;5.63;;;4.97;;
59960;SDS011;55902;-37.980;-63.602;2022-08-02T08:47:12;6.25;;;5.50;;
59960;SDS011;55902;-37.980;-63.602;2022-08-02T08:49:40;6.70;;;5.35;;
59960;SDS011;55902;-37.980;-63.602;2022-08-02T08:52:12;7.45;;;5.15;;
59960;SDS011;55902;-37.980;-63.602;2022-08-02T08:54:41;6.50;;;5.07;;
59960;SDS011;55902;-37.980;-63.602;2022-08-02T09:00:32;7.60;;;5.50;;
59960;SDS011;55902;-37.980;-63.602;2022-08-02T09:17:24;5.95;;;4.63;;
59960;SDS011;55902;-37.980;-63.602;2022-08-02T09:20:07;7.50;;;5.88;;
59960;SDS011;55902;-37.980;-63.602;2022-08-02T09:22:34;8.45;;;6.28;;
59960;SDS011;55902;-37.980;-63.602;2022-08-02T09:25:01;10.40;;;7.13;;
59960;SDS011;55902;-37.980;-63.602;2022-08-02T09:27:28;11.80;;;7.65;;
59960;SDS011;55902;-37.980;-63.602;2022-08-02T09:30:01;9.57;;;7.00;;
59960;SDS011;55902;-37.980;-63.602;2022-08-02T09:32:32;10.18;;;6.63;;
59960;SDS011;55902;-37.980;-63.602;2022-08-02T09:35:10;9.35;;;5.82;;
59960;SDS011;55902;-37.980;-63.602;2022-08-02T09:37:39;10.52;;;7.53;;
59960;SDS011;55902;-37.980;-63.602;2022-08-02T09:40:06;15.20;;;9.85;;
59960;SDS011;55902;-37.980;-63.602;2022-08-02T09:42:35;13.93;;;10.55;;
59960;SDS011;55902;-37.980;-63.602;2022-08-02T09:45:02;14.20;;;9.90;;
59960;SDS011;55902;-37.980;-63.602;2022-08-02T09:47:30;16.38;;;10.30;;
59960;SDS011;55902;-37.980;-63.602;2022-08-02T09:49:57;15.15;;;10.55;;
59960;SDS011;55902;-37.980;-63.602;2022-08-02T09:52:28;19.00;;;11.50;;
59960;SDS011;55902;-37.980;-63.602;2022-08-02T09:55:01;22.67;;;13.30;;
59960;SDS011;55902;-37.980;-63.602;2022-08-02T09:57:31;20.05;;;11.63;;
59960;SDS011;55902;-37.980;-63.602;2022-08-02T10:00:00;18.48;;;10.35;;
59960;SDS011;55902;-37.980;-63.602;2022-08-02T10:02:31;16.55;;;10.40;;
59960;SDS011;55902;-37.980;-63.602;2022-08-02T10:04:58;18.25;;;12.07;;
59960;SDS011;55902;-37.980;-63.602;2022-08-02T10:07:25;22.52;;;13.18;;
59960;SDS011;55902;-37.980;-63.602;2022-08-02T10:09:53;20.40;;;12.52;;
59960;SDS011;55902;-37.980;-63.602;2022-08-02T10:12:20;15.50;;;10.30;;
59960;SDS011;55902;-37.980;-63.602;2022-08-02T10:14:51;14.70;;;9.73;;
59960;SDS011;55902;-37.980;-63.602;2022-08-02T10:17:18;14.30;;;9.55;;
59960;SDS011;55902;-37.980;-63.602;2022-08-02T10:19:45;17.35;;;10.88;;
59960;SDS011;55902;-37.980;-63.602;2022-08-02T10:22:13;17.42;;;10.45;;
59960;SDS011;55902;-37.980;-63.602;2022-08-02T10:24:42;17.23;;;10.68;;
59960;SDS011;55902;-37.980;-63.602;2022-08-02T10:27:14;19.70;;;11.68;;
59960;SDS011;55902;-37.980;-63.602;2022-08-02T10:29:44;20.40;;;12.02;;
59960;SDS011;55902;-37.980;-63.602;2022-08-02T10:32:14;16.15;;;10.73;;
59960;SDS011;55902;-37.980;-63.602;2022-08-02T10:34:53;17.55;;;10.50;;
59960;SDS011;55902;-37.980;-63.602;2022-08-02T10:37:27;17.52;;;10.70;;
59960;SDS011;55902;-37.980;-63.602;2022-08-02T10:39:57;18.83;;;11.63;;
59960;SDS011;55902;-37.980;-63.602;2022-08-02T10:45:23;18.08;;;11.10;;
59960;SDS011;55902;-37.980;-63.602;2022-08-02T10:48:06;17.23;;;10.57;;
59960;SDS011;55902;-37.980;-63.602;2022-08-02T10:55:56;18.52;;;10.82;;
59960;SDS011;55902;-37.980;-63.602;2022-08-02T10:58:25;17.02;;;10.75;;
59960;SDS011;55902;-37.980;-63.602;2022-08-02T11:00:54;16.98;;;10.38;;
59960;SDS011;55902;-37.980;-63.602;2022-08-02T11:03:41;17.40;;;10.63;;
59960;SDS011;55902;-37.980;-63.602;2022-08-02T11:06:11;17.63;;;10.82;;
59960;SDS011;55902;-37.980;-63.602;2022-08-02T11:08:39;16.00;;;9.88;;
59960;SDS011;55902;-37.980;-63.602;2022-08-02T11:19:21;14.88;;;9.40;;
59960;SDS011;55902;-37.980;-63.602;2022-08-02T11:22:02;18.92;;;12.38;;
59960;SDS011;55902;-37.980;-63.602;2022-08-02T11:24:31;16.48;;;11.00;;
59960;SDS011;55902;-37.980;-63.602;2022-08-02T11:27:00;18.67;;;10.45;;
59960;SDS011;55902;-37.980;-63.602;2022-08-02T11:32:03;16.38;;;10.55;;
59960;SDS011;55902;-37.980;-63.602;2022-08-02T11:34:31;15.85;;;9.63;;
59960;SDS011;55902;-37.980;-63.602;2022-08-02T11:36:58;14.43;;;9.60;;
59960;SDS011;55902;-37.980;-63.602;2022-08-02T11:39:26;14.93;;;10.48;;
59960;SDS011;55902;-37.980;-63.602;2022-08-02T11:41:54;11.73;;;8.45;;
59960;SDS011;55902;-37.980;-63.602;2022-08-02T11:44:23;11.63;;;8.27;;
59960;SDS011;55902;-37.980;-63.602;2022-08-02T11:46:58;11.77;;;8.30;;
59960;SDS011;55902;-37.980;-63.602;2022-08-02T11:49:27;12.07;;;7.50;;
59960;SDS011;55902;-37.980;-63.602;2022-08-02T11:51:58;11.60;;;8.65;;
59960;SDS011;55902;-37.980;-63.602;2022-08-02T11:54:36;10.60;;;8.10;;
59960;SDS011;55902;-37.980;-63.602;2022-08-02T11:57:12;13.55;;;9.70;;
59960;SDS011;55902;-37.980;-63.602;2022-08-02T11:59:42;13.18;;;8.90;;
59960;SDS011;55902;-37.980;-63.602;2022-08-02T12:02:11;9.88;;;7.20;;
59960;SDS011;55902;-37.980;-63.602;2022-08-02T12:04:38;12.60;;;9.05;;
59960;SDS011;55902;-37.980;-63.602;2022-08-02T12:07:06;9.80;;;7.55;;
59960;SDS011;55902;-37.980;-63.602;2022-08-02T12:09:34;9.13;;;7.03;;
59960;SDS011;55902;-37.980;-63.602;2022-08-02T12:12:02;10.02;;;7.60;;
59960;SDS011;55902;-37.980;-63.602;2022-08-02T12:14:30;10.80;;;7.57;;
59960;SDS011;55902;-37.980;-63.602;2022-08-02T12:16:57;9.20;;;6.97;;
59960;SDS011;55902;-37.980;-63.602;2022-08-02T12:19:45;11.18;;;8.38;;
59960;SDS011;55902;-37.980;-63.602;2022-08-02T12:22:25;9.93;;;7.72;;
59960;SDS011;55902;-37.980;-63.602;2022-08-02T12:24:56;12.85;;;9.40;;
59960;SDS011;55902;-37.980;-63.602;2022-08-02T12:27:32;11.85;;;9.15;;
59960;SDS011;55902;-37.980;-63.602;2022-08-02T12:32:35;13.13;;;9.32;;
59960;SDS011;55902;-37.980;-63.602;2022-08-02T12:35:21;11.75;;;8.73;;
59960;SDS011;55902;-37.980;-63.602;2022-08-02T12:37:48;12.57;;;8.23;;
59960;SDS011;55902;-37.980;-63.602;2022-08-02T12:45:21;21.35;;;11.13;;
59960;SDS011;55902;-37.980;-63.602;2022-08-02T12:47:49;16.08;;;10.43;;
59960;SDS011;55902;-37.980;-63.602;2022-08-02T12:53:49;12.85;;;9.73;;
59960;SDS011;55902;-37.980;-63.602;2022-08-02T12:56:29;12.48;;;9.35;;
59960;SDS011;55902;-37.980;-63.602;2022-08-02T12:58:58;9.23;;;7.15;;
59960;SDS011;55902;-37.980;-63.602;2022-08-02T13:01:25;9.45;;;7.20;;
59960;SDS011;55902;-37.980;-63.602;2022-08-02T13:03:53;9.57;;;7.05;;
59960;SDS011;55902;-37.980;-63.602;2022-08-02T13:06:21;10.02;;;7.90;;
59960;SDS011;55902;-37.980;-63.602;2022-08-02T13:08:49;11.65;;;8.68;;
59960;SDS011;55902;-37.980;-63.602;2022-08-02T13:11:18;10.02;;;8.00;;
59960;SDS011;55902;-37.980;-63.602;2022-08-02T13:13:45;10.30;;;7.85;;
59960;SDS011;55902;-37.980;-63.602;2022-08-02T13:16:12;12.30;;;9.52;;
59960;SDS011;55902;-37.980;-63.602;2022-08-02T13:18:39;11.18;;;8.35;;
59960;SDS011;55902;-37.980;-63.602;2022-08-02T13:21:06;11.00;;;8.43;;
59960;SDS011;55902;-37.980;-63.602;2022-08-02T13:23:35;12.13;;;9.68;;
59960;SDS011;55902;-37.980;-63.602;2022-08-02T13:26:02;9.50;;;7.53;;
59960;SDS011;55902;-37.980;-63.602;2022-08-02T13:28:30;12.82;;;9.52;;
59960;SDS011;55902;-37.980;-63.602;2022-08-02T13:30:59;8.93;;;7.22;;
59960;SDS011;55902;-37.980;-63.602;2022-08-02T13:33:26;11.45;;;8.43;;
59960;SDS011;55902;-37.980;-63.602;2022-08-02T13:35:53;13.20;;;8.98;;
59960;SDS011;55902;-37.980;-63.602;2022-08-02T13:38:20;13.70;;;9.45;;
59960;SDS011;55902;-37.980;-63.602;2022-08-02T13:40:47;10.85;;;8.00;;
59960;SDS011;55902;-37.980;-63.602;2022-08-02T13:43:47;11.43;;;8.52;;
59960;SDS011;55902;-37.980;-63.602;2022-08-02T13:46:15;11.65;;;8.80;;
59960;SDS011;55902;-37.980;-63.602;2022-08-02T13:48:42;14.20;;;10.25;;
59960;SDS011;55902;-37.980;-63.602;2022-08-02T13:51:09;15.75;;;10.32;;
59960;SDS011;55902;-37.980;-63.602;2022-08-02T13:53:39;12.50;;;9.55;;
59960;SDS011;55902;-37.980;-63.602;2022-08-02T13:56:06;12.65;;;9.63;;
59960;SDS011;55902;-37.980;-63.602;2022-08-02T13:58:34;10.00;;;7.65;;
59960;SDS011;55902;-37.980;-63.602;2022-08-02T14:01:01;9.38;;;7.45;;
59960;SDS011;55902;-37.980;-63.602;2022-08-02T14:03:28;11.43;;;9.05;;
59960;SDS011;55902;-37.980;-63.602;2022-08-02T14:05:55;11.50;;;8.60;;
59960;SDS011;55902;-37.980;-63.602;2022-08-02T14:08:22;11.25;;;8.65;;
59960;SDS011;55902;-37.980;-63.602;2022-08-02T14:10:49;14.35;;;10.05;;
59960;SDS011;55902;-37.980;-63.602;2022-08-02T14:13:16;12.35;;;9.68;;
59960;SDS011;55902;-37.980;-63.602;2022-08-02T14:15:44;12.82;;;9.80;;
59960;SDS011;55902;-37.980;-63.602;2022-08-02T14:18:11;10.85;;;8.27;;
59960;SDS011;55902;-37.980;-63.602;2022-08-02T14:20:39;12.02;;;8.57;;
59960;SDS011;55902;-37.980;-63.602;2022-08-02T14:23:07;10.63;;;8.65;;
59960;SDS011;55902;-37.980;-63.602;2022-08-02T14:25:34;10.38;;;7.57;;
59960;SDS011;55902;-37.980;-63.602;2022-08-02T14:28:02;8.60;;;6.43;;
59960;SDS011;55902;-37.980;-63.602;2022-08-02T14:30:29;8.40;;;6.78;;
59960;SDS011;55902;-37.980;-63.602;2022-08-02T14:32:56;13.70;;;8.75;;
59960;SDS011;55902;-37.980;-63.602;2022-08-02T14:35:23;11.98;;;8.23;;
59960;SDS011;55902;-37.980;-63.602;2022-08-02T14:37:50;12.15;;;8.07;;
59960;SDS011;55902;-37.980;-63.602;2022-08-02T14:40:17;11.60;;;8.43;;
59960;SDS011;55902;-37.980;-63.602;2022-08-02T14:42:43;9.15;;;6.47;;
59960;SDS011;55902;-37.980;-63.602;2022-08-02T14:45:10;12.25;;;8.15;;
59960;SDS011;55902;-37.980;-63.602;2022-08-02T14:47:37;9.55;;;6.90;;
59960;SDS011;55902;-37.980;-63.602;2022-08-02T14:50:04;10.48;;;7.47;;
59960;SDS011;55902;-37.980;-63.602;2022-08-02T14:52:32;10.13;;;6.68;;
59960;SDS011;55902;-37.980;-63.602;2022-08-02T14:54:59;9.00;;;6.25;;
59960;SDS011;55902;-37.980;-63.602;2022-08-02T14:57:28;11.63;;;8.07;;
59960;SDS011;55902;-37.980;-63.602;2022-08-02T14:59:56;15.82;;;10.57;;
59960;SDS011;55902;-37.980;-63.602;2022-08-02T15:02:26;11.88;;;8.10;;
59960;SDS011;55902;-37.980;-63.602;2022-08-02T15:04:53;9.60;;;6.88;;
59960;SDS011;55902;-37.980;-63.602;2022-08-02T15:07:20;13.20;;;8.75;;
59960;SDS011;55902;-37.980;-63.602;2022-08-02T15:09:48;15.73;;;9.45;;
59960;SDS011;55902;-37.980;-63.602;2022-08-02T15:12:15;12.27;;;8.77;;
59960;SDS011;55902;-37.980;-63.602;2022-08-02T15:14:42;11.57;;;7.63;;
59960;SDS011;55902;-37.980;-63.602;2022-08-02T15:17:10;11.38;;;7.32;;
59960;SDS011;55902;-37.980;-63.602;2022-08-02T15:19:37;11.60;;;8.23;;
59960;SDS011;55902;-37.980;-63.602;2022-08-02T15:22:06;14.30;;;8.50;;
59960;SDS011;55902;-37.980;-63.602;2022-08-02T15:24:33;10.60;;;7.20;;
59960;SDS011;55902;-37.980;-63.602;2022-08-02T15:27:00;9.15;;;6.88;;
59960;SDS011;55902;-37.980;-63.602;2022-08-02T15:29:27;9.02;;;7.05;;
59960;SDS011;55902;-37.980;-63.602;2022-08-02T15:31:53;6.70;;;5.35;;
59960;SDS011;55902;-37.980;-63.602;2022-08-02T15:34:20;7.65;;;5.80;;
59960;SDS011;55902;-37.980;-63.602;2022-08-02T15:36:47;6.00;;;4.80;;
59960;SDS011;55902;-37.980;-63.602;2022-08-02T15:39:14;8.10;;;5.40;;
59960;SDS011;55902;-37.980;-63.602;2022-08-02T15:41:41;9.50;;;6.60;;
59960;SDS011;55902;-37.980;-63.602;2022-08-02T15:44:08;7.88;;;6.13;;